createdAt,value
2023-11-28T00:01:53.664Z,6.40
2023-11-28T00:04:21.102Z,6.45
2023-11-28T00:06:52.902Z,6.44
2023-11-28T00:09:25.283Z,6.43
2023-11-28T00:11:55.048Z,6.45
2023-11-28T00:14:22.285Z,6.49
2023-11-28T00:16:49.689Z,6.42
2023-11-28T00:19:17.101Z,6.43
2023-11-28T00:21:47.423Z,6.34
2023-11-28T00:24:17.090Z,6.34
2023-11-28T00:26:47.211Z,6.46
2023-11-28T00:29:14.400Z,6.36
2023-11-28T00:31:43.598Z,6.37
2023-11-28T00:34:12.121Z,6.46
2023-11-28T00:36:39.391Z,6.52
2023-11-28T00:39:06.883Z,6.44
2023-11-28T00:41:34.465Z,6.37
2023-11-28T00:44:02.410Z,6.38
2023-11-28T00:46:29.649Z,6.52
2023-11-28T00:48:57.958Z,6.56
2023-11-28T00:51:25.188Z,6.69
2023-11-28T00:53:52.183Z,6.63
2023-11-28T00:56:20.466Z,6.54
2023-11-28T00:58:48.706Z,6.54
2023-11-28T01:01:17.576Z,6.47
2023-11-28T01:03:45.793Z,6.41
2023-11-28T01:06:13.090Z,6.39
2023-11-28T01:08:40.029Z,6.41
2023-11-28T01:11:07.469Z,6.42
2023-11-28T01:13:34.470Z,6.48
2023-11-28T01:16:01.582Z,6.46
2023-11-28T01:18:29.329Z,6.46
2023-11-28T01:20:56.287Z,6.37
2023-11-28T01:23:23.286Z,6.37
2023-11-28T01:25:51.368Z,6.35
2023-11-28T01:28:18.465Z,6.34
2023-11-28T01:30:45.404Z,6.38
2023-11-28T01:33:13.440Z,6.18
2023-11-28T01:35:40.789Z,6.04
2023-11-28T01:38:07.820Z,5.93
2023-11-28T01:40:35.064Z,5.99
2023-11-28T01:43:02.029Z,5.94
2023-11-28T01:45:28.992Z,5.84
2023-11-28T01:47:57.722Z,5.94
2023-11-28T01:50:25.090Z,5.95
2023-11-28T01:52:52.686Z,5.86
2023-11-28T01:55:19.780Z,5.85
2023-11-28T01:57:48.496Z,5.76
2023-11-28T02:00:16.113Z,5.75
2023-11-28T02:02:43.308Z,5.72
2023-11-28T02:05:10.995Z,5.69
2023-11-28T02:07:38.159Z,5.71
2023-11-28T02:10:05.419Z,5.69
2023-11-28T02:12:32.390Z,5.72
2023-11-28T02:14:59.526Z,5.83
2023-11-28T02:17:26.680Z,5.79
2023-11-28T02:19:59.069Z,5.87
2023-11-28T02:22:27.575Z,5.98
2023-11-28T02:24:58.270Z,5.86
2023-11-28T02:27:25.300Z,5.88
2023-11-28T02:29:52.870Z,5.84
2023-11-28T02:32:20.756Z,5.87
2023-11-28T02:34:47.688Z,5.94
2023-11-28T02:37:14.718Z,5.91
2023-11-28T02:39:41.628Z,5.93
2023-11-28T02:42:08.634Z,5.90
2023-11-28T02:44:35.911Z,5.84
2023-11-28T02:47:03.468Z,5.88
2023-11-28T02:49:30.455Z,5.74
2023-11-28T02:51:57.447Z,5.81
2023-11-28T02:54:24.288Z,5.81
2023-11-28T02:56:51.215Z,5.74
2023-11-28T02:59:18.143Z,5.69
2023-11-28T03:01:45.300Z,5.71
2023-11-28T03:04:12.349Z,5.80
2023-11-28T03:06:39.320Z,5.70
2023-11-28T03:09:07.453Z,5.70
2023-11-28T03:11:34.652Z,5.64
2023-11-28T03:14:01.620Z,5.63
2023-11-28T03:16:28.729Z,5.52
2023-11-28T03:18:55.658Z,5.55
2023-11-28T03:21:22.679Z,5.52
2023-11-28T03:23:49.621Z,5.47
2023-11-28T03:26:16.886Z,5.37
2023-11-28T03:28:43.878Z,5.35
2023-11-28T03:31:11.864Z,5.29
2023-11-28T03:33:38.845Z,5.30
2023-11-28T03:36:06.139Z,5.30
2023-11-28T03:38:33.570Z,5.27
2023-11-28T03:41:00.793Z,5.23
2023-11-28T03:43:27.820Z,5.19
2023-11-28T03:45:55.080Z,5.24
2023-11-28T03:48:22.060Z,5.21
2023-11-28T03:50:49.077Z,5.27
2023-11-28T03:53:16.074Z,5.31
2023-11-28T03:55:43.117Z,5.41
2023-11-28T03:58:10.065Z,5.39
2023-11-28T04:00:37.197Z,5.43
2023-11-28T04:03:04.334Z,5.52
2023-11-28T04:05:31.471Z,5.54
2023-11-28T04:07:58.337Z,5.57
2023-11-28T04:10:25.285Z,5.65
2023-11-28T04:12:52.934Z,5.63
2023-11-28T04:15:19.987Z,5.61
2023-11-28T04:17:47.022Z,5.45
2023-11-28T04:20:14.331Z,5.49
2023-11-28T04:22:41.635Z,5.52
2023-11-28T04:25:09.027Z,5.54
2023-11-28T04:27:36.221Z,5.59
2023-11-28T04:30:04.017Z,5.46
2023-11-28T04:32:32.732Z,5.27
2023-11-28T04:34:59.906Z,5.34
2023-11-28T04:37:26.855Z,5.34
2023-11-28T04:39:55.662Z,5.40
2023-11-28T04:42:22.698Z,5.31
2023-11-28T04:44:49.801Z,5.30
2023-11-28T04:47:17.642Z,5.35
2023-11-28T04:49:44.858Z,5.32
2023-11-28T04:52:11.900Z,5.34
2023-11-28T04:54:38.816Z,5.42
2023-11-28T04:57:06.591Z,5.45
2023-11-28T04:59:33.693Z,5.38
2023-11-28T05:02:00.726Z,5.28
2023-11-28T05:04:28.083Z,5.28
2023-11-28T05:06:55.005Z,5.27
2023-11-28T05:09:22.066Z,5.39
2023-11-28T05:11:48.979Z,5.40
2023-11-28T05:14:16.103Z,5.33
2023-11-28T05:16:48.558Z,5.30
2023-11-28T05:19:21.875Z,5.36
2023-11-28T05:21:48.794Z,5.38
2023-11-28T05:24:15.808Z,5.43
2023-11-28T05:26:42.842Z,5.49
2023-11-28T05:29:10.021Z,5.55
2023-11-28T05:31:37.124Z,5.62
2023-11-28T05:34:04.335Z,5.49
2023-11-28T05:36:31.861Z,5.48
2023-11-28T05:38:58.876Z,5.45
2023-11-28T05:41:25.936Z,5.55
2023-11-28T05:43:54.668Z,5.43
2023-11-28T05:46:22.398Z,5.42
2023-11-28T05:48:49.996Z,5.38
2023-11-28T05:51:17.392Z,5.48
2023-11-28T05:53:44.774Z,5.45
2023-11-28T05:56:13.667Z,5.45
2023-11-28T05:58:40.906Z,5.40
2023-11-28T06:01:08.204Z,5.41
2023-11-28T06:03:36.041Z,5.46
2023-11-28T06:06:05.314Z,5.52
2023-11-28T06:08:32.258Z,5.53
2023-11-28T06:10:59.580Z,5.54
2023-11-28T06:13:26.537Z,5.45
2023-11-28T06:15:53.543Z,5.40
2023-11-28T06:18:21.634Z,5.37
2023-11-28T06:20:48.551Z,5.39
2023-11-28T06:23:18.698Z,5.41
2023-11-28T06:25:47.469Z,5.39
2023-11-28T06:28:14.505Z,5.51
2023-11-28T06:30:41.417Z,5.48
2023-11-28T06:33:08.426Z,5.70
2023-11-28T06:35:39.454Z,5.68
2023-11-28T06:38:06.507Z,5.64
2023-11-28T06:40:34.195Z,5.74
2023-11-28T06:43:01.344Z,5.78
2023-11-28T06:45:28.500Z,5.61
2023-11-28T06:47:55.774Z,5.55
2023-11-28T06:50:22.923Z,5.63
2023-11-28T06:52:50.039Z,5.42
2023-11-28T06:55:20.105Z,5.35
2023-11-28T06:57:49.282Z,5.40
2023-11-28T07:00:16.893Z,5.56
2023-11-28T07:02:44.154Z,5.43
2023-11-28T07:08:21.203Z,5.36
2023-11-28T07:10:48.397Z,5.25
2023-11-28T07:13:15.847Z,5.28
2023-11-28T07:15:43.084Z,5.31
2023-11-28T07:18:12.190Z,5.29
2023-11-28T07:20:39.780Z,5.29
2023-11-28T07:23:07.718Z,5.41
2023-11-28T07:25:37.384Z,5.53
2023-11-28T07:28:05.440Z,5.65
2023-11-28T07:30:35.888Z,5.66
2023-11-28T07:33:05.038Z,5.64
2023-11-28T07:35:31.984Z,5.57
2023-11-28T07:37:59.225Z,5.59
2023-11-28T07:40:27.789Z,5.69
2023-11-28T07:42:57.374Z,5.63
2023-11-28T07:45:24.642Z,5.79
2023-11-28T07:47:54.884Z,5.66
2023-11-28T07:50:34.631Z,5.76
2023-11-28T07:53:02.287Z,5.70
2023-11-28T07:55:29.338Z,5.80
2023-11-28T07:57:56.354Z,5.78
2023-11-28T08:00:27.282Z,5.75
2023-11-28T08:02:54.407Z,5.81
2023-11-28T08:05:21.536Z,5.87
2023-11-28T08:07:48.672Z,5.80
2023-11-28T08:10:15.706Z,5.81
2023-11-28T08:12:43.001Z,5.82
2023-11-28T08:15:10.365Z,5.90
2023-11-28T08:17:41.633Z,5.92
2023-11-28T08:20:09.765Z,5.99
2023-11-28T08:22:39.413Z,5.95
2023-11-28T08:25:06.767Z,5.88
2023-11-28T08:27:33.724Z,5.89
2023-11-28T08:30:04.897Z,5.99
2023-11-28T08:32:35.432Z,5.85
2023-11-28T08:35:02.830Z,5.93
2023-11-28T08:37:29.765Z,6.10
2023-11-28T08:39:56.985Z,6.02
2023-11-28T08:42:24.066Z,6.03
2023-11-28T08:44:51.163Z,5.97
2023-11-28T08:47:18.313Z,5.85
2023-11-28T08:49:48.622Z,5.81
2023-11-28T08:52:15.811Z,5.95
2023-11-28T08:54:46.400Z,6.09
2023-11-28T08:57:16.840Z,6.04
2023-11-28T08:59:44.451Z,5.68
2023-11-28T09:02:11.883Z,5.69
2023-11-28T09:04:39.149Z,5.74
2023-11-28T09:07:06.388Z,5.83
2023-11-28T09:09:33.475Z,5.82
2023-11-28T09:12:00.591Z,5.89
2023-11-28T09:14:27.648Z,5.86
2023-11-28T09:16:54.964Z,5.78
2023-11-28T09:19:25.194Z,5.81
2023-11-28T09:21:52.124Z,5.73
2023-11-28T09:24:19.113Z,5.68
2023-11-28T09:26:46.446Z,5.73
2023-11-28T09:29:18.818Z,5.74
2023-11-28T09:31:46.137Z,5.93
2023-11-28T09:34:13.147Z,5.97
2023-11-28T09:36:40.393Z,6.12
2023-11-28T09:39:10.974Z,6.29
2023-11-28T09:41:46.190Z,6.38
2023-11-28T09:44:26.978Z,6.32
2023-11-28T09:46:58.297Z,6.18
2023-11-28T09:49:31.525Z,6.10
2023-11-28T09:52:00.343Z,6.04
2023-11-28T09:54:29.618Z,6.01
2023-11-28T09:56:57.175Z,6.00
2023-11-28T09:59:30.856Z,6.03
2023-11-28T10:02:01.780Z,5.98
2023-11-28T10:04:29.047Z,6.04
2023-11-28T10:06:59.763Z,6.07
2023-11-28T10:09:27.118Z,6.09
2023-11-28T10:11:56.766Z,6.13
2023-11-28T10:14:23.940Z,6.22
2023-11-28T10:16:52.858Z,6.28
2023-11-28T10:19:20.009Z,6.35
2023-11-28T10:21:47.636Z,6.35
2023-11-28T10:24:15.440Z,6.39
2023-11-28T10:26:42.326Z,6.51
2023-11-28T10:29:10.001Z,6.59
2023-11-28T10:31:38.800Z,6.63
2023-11-28T10:34:10.208Z,6.75
2023-11-28T10:36:47.682Z,6.81
2023-11-28T10:39:17.053Z,6.87
2023-11-28T10:41:44.178Z,7.01
2023-11-28T10:44:11.391Z,7.06
2023-11-28T10:46:40.916Z,7.09
2023-11-28T10:49:08.412Z,6.97
2023-11-28T10:51:36.895Z,7.08
2023-11-28T10:54:19.039Z,7.16
2023-11-28T10:56:54.441Z,7.25
2023-11-28T10:59:21.368Z,7.34
2023-11-28T11:01:49.391Z,7.36
2023-11-28T11:04:16.577Z,7.19
2023-11-28T11:06:43.683Z,7.09
2023-11-28T11:09:13.002Z,7.14
2023-11-28T11:11:42.468Z,7.27
2023-11-28T11:14:19.279Z,7.32
2023-11-28T11:17:14.908Z,7.37
2023-11-28T11:19:48.970Z,7.27
2023-11-28T11:22:28.188Z,7.25
2023-11-28T11:25:01.799Z,7.41
2023-11-28T11:27:30.028Z,7.37
2023-11-28T11:29:57.202Z,7.46
2023-11-28T11:32:25.090Z,7.49
2023-11-28T11:34:52.818Z,7.66
2023-11-28T11:37:32.210Z,7.88
2023-11-28T11:40:03.588Z,7.84
2023-11-28T11:42:35.133Z,7.91
2023-11-28T11:45:08.232Z,7.99
2023-11-28T11:47:40.654Z,7.88
2023-11-28T11:50:09.645Z,7.58
2023-11-28T11:52:39.914Z,7.78
2023-11-28T11:55:06.905Z,8.00
2023-11-28T11:57:34.437Z,7.83
2023-11-28T12:00:01.720Z,7.88
2023-11-28T12:02:45.287Z,7.83
2023-11-28T12:05:14.193Z,8.02
2023-11-28T12:07:42.199Z,8.31
2023-11-28T12:10:11.290Z,8.03
2023-11-28T12:12:41.921Z,8.29
2023-11-28T12:15:13.684Z,8.68
2023-11-28T12:17:42.449Z,8.71
2023-11-28T12:20:10.845Z,8.63
2023-11-28T12:22:38.415Z,8.55
2023-11-28T12:25:05.830Z,8.55
2023-11-28T12:27:33.537Z,8.44
2023-11-28T12:30:05.021Z,8.36
2023-11-28T12:32:32.156Z,8.48
2023-11-28T12:34:59.677Z,8.41
2023-11-28T12:37:31.003Z,8.40
2023-11-28T12:39:58.998Z,8.38
2023-11-28T12:42:27.317Z,8.33
2023-11-28T12:44:58.531Z,8.28
2023-11-28T12:47:27.497Z,8.40
2023-11-28T12:49:54.656Z,8.42
2023-11-28T12:52:28.586Z,8.66
2023-11-28T12:54:56.437Z,8.81
2023-11-28T12:57:26.759Z,8.69
2023-11-28T12:59:53.908Z,8.73
2023-11-28T13:02:21.249Z,8.73
2023-11-28T13:04:48.746Z,8.67
2023-11-28T13:07:26.722Z,8.72
2023-11-28T13:10:01.476Z,8.71
2023-11-28T13:12:28.843Z,8.84
2023-11-28T13:14:56.316Z,8.81
2023-11-28T13:17:24.045Z,8.67
2023-11-28T13:19:54.378Z,8.53
2023-11-28T13:22:21.470Z,8.32
2023-11-28T13:24:52.168Z,8.34
2023-11-28T13:27:19.961Z,8.39
2023-11-28T13:29:48.042Z,8.35
2023-11-28T13:32:16.214Z,8.41
2023-11-28T13:34:51.012Z,8.59
2023-11-28T13:37:28.605Z,8.81
2023-11-28T13:39:56.117Z,9.07
2023-11-28T13:42:24.151Z,9.22
2023-11-28T13:44:52.157Z,9.27
2023-11-28T13:47:23.430Z,9.26
2023-11-28T13:49:52.883Z,9.36
2023-11-28T13:52:20.149Z,9.17
2023-11-28T13:54:49.945Z,9.01
2023-11-28T13:57:21.259Z,8.89
2023-11-28T13:59:51.548Z,8.74
2023-11-28T14:02:22.740Z,8.69
2023-11-28T14:04:51.880Z,8.44
2023-11-28T14:07:18.838Z,8.64
2023-11-28T14:09:47.040Z,8.43
2023-11-28T14:12:15.412Z,8.38
2023-11-28T14:14:50.623Z,8.37
2023-11-28T14:17:23.775Z,8.37
2023-11-28T14:19:51.132Z,8.35
2023-11-28T14:22:18.270Z,8.20
2023-11-28T14:24:45.231Z,8.10
2023-11-28T14:27:12.320Z,8.08
2023-11-28T14:29:39.279Z,7.93
2023-11-28T14:32:07.569Z,7.94
2023-11-28T14:34:35.074Z,7.82
2023-11-28T14:37:02.854Z,7.67
2023-11-28T14:39:35.898Z,7.71
2023-11-28T14:42:04.161Z,7.59
2023-11-28T14:44:31.731Z,7.53
2023-11-28T14:46:58.935Z,7.35
2023-11-28T14:49:26.018Z,7.19
2023-11-28T14:51:53.294Z,7.09
2023-11-28T14:54:21.042Z,7.11
2023-11-28T14:56:48.316Z,7.03
2023-11-28T14:59:16.395Z,7.09
2023-11-28T15:01:44.106Z,7.05
2023-11-28T15:04:11.249Z,7.06
2023-11-28T15:06:40.510Z,6.88
2023-11-28T15:09:07.962Z,6.77
2023-11-28T15:11:35.480Z,6.64
2023-11-28T15:14:03.590Z,6.60
2023-11-28T15:16:35.830Z,6.79
2023-11-28T15:19:06.177Z,6.76
2023-11-28T15:21:40.018Z,6.65
2023-11-28T15:24:23.273Z,6.60
2023-11-28T15:26:51.129Z,6.48
2023-11-28T15:29:18.319Z,6.33
2023-11-28T15:31:45.373Z,6.41
2023-11-28T15:34:12.504Z,6.43
2023-11-28T15:36:39.458Z,6.53
2023-11-28T15:39:15.576Z,6.35
2023-11-28T15:41:42.656Z,6.29
2023-11-28T15:44:10.525Z,6.17
2023-11-28T15:46:37.511Z,6.08
2023-11-28T15:49:04.522Z,5.98
2023-11-28T15:51:37.760Z,5.91
2023-11-28T15:54:08.315Z,5.83
2023-11-28T15:56:36.012Z,5.76
2023-11-28T15:59:04.389Z,5.78
2023-11-28T16:01:32.393Z,5.95
2023-11-28T16:03:59.711Z,5.82
2023-11-28T16:06:26.704Z,5.85
2023-11-28T16:08:53.779Z,5.93
2023-11-28T16:11:21.202Z,5.89
2023-11-28T16:13:48.360Z,5.76
2023-11-28T16:16:16.471Z,5.76
2023-11-28T16:18:43.781Z,5.70
2023-11-28T16:21:11.512Z,5.69
2023-11-28T16:23:38.767Z,5.66
2023-11-28T16:26:06.198Z,5.67
2023-11-28T16:28:33.595Z,5.71
2023-11-28T16:31:00.738Z,5.72
2023-11-28T16:33:27.915Z,5.77
2023-11-28T16:35:59.563Z,5.77
2023-11-28T16:38:26.733Z,5.78
2023-11-28T16:40:54.003Z,5.84
2023-11-28T16:43:21.070Z,5.86
2023-11-28T16:45:50.194Z,5.96
2023-11-28T16:48:18.655Z,5.99
2023-11-28T16:50:45.731Z,5.91
2023-11-28T16:53:13.638Z,5.91
2023-11-28T16:55:40.791Z,5.91
2023-11-28T16:58:08.145Z,5.82
2023-11-28T17:00:36.949Z,5.81
2023-11-28T17:03:04.288Z,5.76
2023-11-28T17:05:32.300Z,5.92
2023-11-28T17:08:01.573Z,5.88
2023-11-28T17:10:32.908Z,5.95
2023-11-28T17:12:59.916Z,6.05
2023-11-28T17:15:27.358Z,6.09
2023-11-28T17:17:54.365Z,6.14
2023-11-28T17:20:22.354Z,6.17
2023-11-28T17:22:49.620Z,6.06
2023-11-28T17:25:16.965Z,6.08
2023-11-28T17:27:44.220Z,6.20
2023-11-28T17:30:11.684Z,6.18
2023-11-28T17:32:39.603Z,6.17
2023-11-28T17:35:13.600Z,6.27
2023-11-28T17:37:43.272Z,6.39
2023-11-28T17:40:10.519Z,6.51
2023-11-28T17:42:38.049Z,6.45
2023-11-28T17:45:06.169Z,6.54
2023-11-28T17:47:35.633Z,6.65
2023-11-28T17:50:06.043Z,6.66
2023-11-28T17:52:33.363Z,6.74
2023-11-28T17:55:01.260Z,6.80
2023-11-28T17:57:28.486Z,6.69
2023-11-28T17:59:55.382Z,6.68
2023-11-28T18:02:22.636Z,6.65
2023-11-28T18:04:49.890Z,6.62
2023-11-28T18:07:20.230Z,6.54
2023-11-28T18:09:47.471Z,6.46
2023-11-28T18:12:14.585Z,6.54
2023-11-28T18:14:41.818Z,6.63
2023-11-28T18:17:08.861Z,6.64
2023-11-28T18:19:35.874Z,6.49
2023-11-28T18:22:03.167Z,6.40
2023-11-28T18:24:30.226Z,6.48
2023-11-28T18:27:04.586Z,6.57
2023-11-28T18:29:32.074Z,6.59
2023-11-28T18:32:02.813Z,6.57
2023-11-28T18:34:39.512Z,6.59
2023-11-28T18:37:07.395Z,6.68
2023-11-28T18:39:34.823Z,6.85
2023-11-28T18:42:02.693Z,6.89
2023-11-28T18:44:30.144Z,6.87
2023-11-28T18:47:05.035Z,6.85
2023-11-28T18:49:44.397Z,6.73
2023-11-28T18:52:12.079Z,6.68
2023-11-28T18:54:42.717Z,6.62
2023-11-28T18:57:12.028Z,6.64
2023-11-28T18:59:40.535Z,6.61
2023-11-28T19:02:10.433Z,6.63
2023-11-28T19:04:42.073Z,6.63
2023-11-28T19:07:12.197Z,6.67
2023-11-28T19:09:42.976Z,6.71
2023-11-28T19:12:10.422Z,6.69
2023-11-28T19:14:40.024Z,6.62
2023-11-28T19:17:07.103Z,6.68
2023-11-28T19:19:37.882Z,6.78
2023-11-28T19:22:05.982Z,6.82
2023-11-28T19:24:35.800Z,6.74
2023-11-28T19:27:06.030Z,6.72
2023-11-28T19:29:33.144Z,6.75
2023-11-28T19:32:00.474Z,6.72
2023-11-28T19:34:30.037Z,6.69
2023-11-28T19:36:58.050Z,6.82
2023-11-28T19:39:26.140Z,6.81
2023-11-28T19:42:21.326Z,6.92
2023-11-28T19:45:00.782Z,6.80
2023-11-28T19:47:28.077Z,6.58
2023-11-28T19:49:58.836Z,6.59
2023-11-28T19:52:27.852Z,6.57
2023-11-28T19:54:54.829Z,6.58
2023-11-28T19:57:26.692Z,6.62
2023-11-28T19:59:57.832Z,6.78
2023-11-28T20:02:36.424Z,6.88
2023-11-28T20:05:06.275Z,6.59
2023-11-28T20:07:34.648Z,6.48
2023-11-28T20:10:06.785Z,6.64
2023-11-28T20:12:34.571Z,6.55
2023-11-28T20:15:01.872Z,6.52
2023-11-28T20:17:32.246Z,6.49
2023-11-28T20:20:01.346Z,6.47
2023-11-28T20:22:28.395Z,6.41
2023-11-28T20:24:55.382Z,6.37
2023-11-28T20:27:22.797Z,6.42
2023-11-28T20:29:49.876Z,6.31
2023-11-28T20:32:16.881Z,6.30
2023-11-28T20:34:44.193Z,6.31
2023-11-28T20:37:18.841Z,6.31
2023-11-28T20:40:02.817Z,6.27
2023-11-28T20:42:30.044Z,6.20
2023-11-28T20:44:57.470Z,6.20
2023-11-28T20:47:24.658Z,6.14
2023-11-28T20:49:51.846Z,6.14
2023-11-28T20:52:19.167Z,6.21
2023-11-28T20:54:46.194Z,6.27
2023-11-28T20:57:13.195Z,6.28
2023-11-28T20:59:40.365Z,6.12
2023-11-28T21:02:08.461Z,6.06
2023-11-28T21:04:36.091Z,6.10
2023-11-28T21:07:03.302Z,6.06
2023-11-28T21:09:31.855Z,6.09
2023-11-28T21:11:58.890Z,6.05
2023-11-28T21:14:25.866Z,5.96
2023-11-28T21:16:52.897Z,5.94
2023-11-28T21:19:19.933Z,6.08
2023-11-28T21:21:46.932Z,5.99
2023-11-28T21:24:15.577Z,6.01
2023-11-28T21:26:44.379Z,5.98
2023-11-28T21:29:11.558Z,5.92
2023-11-28T21:31:38.586Z,5.84
2023-11-28T21:34:05.593Z,5.78
2023-11-28T21:36:37.198Z,5.85
2023-11-28T21:39:05.559Z,5.89
2023-11-28T21:41:32.731Z,6.01
2023-11-28T21:44:00.317Z,6.02
2023-11-28T21:46:27.329Z,5.87
2023-11-28T21:48:58.935Z,5.90
2023-11-28T21:51:25.938Z,5.76
2023-11-28T21:53:52.952Z,5.76
2023-11-28T21:56:19.940Z,5.70
2023-11-28T21:58:49.489Z,5.69
2023-11-28T22:01:17.984Z,5.70
2023-11-28T22:03:47.551Z,5.76
2023-11-28T22:06:14.787Z,5.86
2023-11-28T22:08:53.804Z,5.88
2023-11-28T22:11:26.533Z,6.02
2023-11-28T22:13:56.611Z,6.01
2023-11-28T22:16:23.569Z,5.98
2023-11-28T22:18:50.696Z,6.02
2023-11-28T22:21:21.553Z,6.16
2023-11-28T22:23:50.089Z,5.92
2023-11-28T22:26:16.988Z,5.81
2023-11-28T22:28:43.956Z,5.84
2023-11-28T22:31:11.035Z,5.92
2023-11-28T22:33:38.031Z,6.23
2023-11-28T22:36:06.200Z,6.25
2023-11-28T22:38:33.252Z,6.37
2023-11-28T22:41:00.199Z,6.42
2023-11-28T22:43:27.244Z,6.40
2023-11-28T22:45:54.448Z,6.40
2023-11-28T22:48:22.268Z,6.39
2023-11-28T22:50:49.494Z,6.29
2023-11-28T22:53:24.794Z,6.60
